PANT

Details ICAO PANT (ANN)
Name ANNETTE ISLAND
Region USA (Alaska)
Timezone America/Juneau (UTC-8.0)
Plans Departing 8
Arriving 14
Stats Elevation 119 ft / 36 m (AMSL)
Location 55.039538° -131.572274°
Runways 2
Magnetic Variation 18.353° E
Sunrise 2018-05-21 12:29:38 UTC / 2018-05-21 04:29:38 Local
Sunset 2018-05-22 04:59:02 UTC / 2018-05-21 20:59:02 Local
Advertisement - Login to hide

Runways

ID Width Length Bearing (true) Bearing (mag) Surface Threshold Offset Overrun Length
02 150 ft / 46 m 5,713 ft / 1,741 m 41.55° 23.20° Gravel 0 ft / 0 m 0 ft / 0 m
12 150 ft / 46 m 7,481 ft / 2,280 m 147.74° 129.39° Asphalt 0 ft / 0 m 0 ft / 0 m
20 150 ft / 46 m 5,713 ft / 1,741 m 221.57° 203.22° Gravel 0 ft / 0 m 0 ft / 0 m
30 150 ft / 46 m 7,481 ft / 2,280 m 327.75° 309.40° Asphalt 0 ft / 0 m 0 ft / 0 m

Map

Weather


0- 5 10 15 20 25 30 35+ Temperature / ° C

Clouds and Precipitation
Forecast for 2018-05-21 18:00 UTC. Updated 2 hours ago

Ground ~20,000 ft ~40,000 ft Winds

METAR

PANT 211853Z AUTO 14012G28KT 10SM -RA BKN010 OVC015 11/10 A2990 RMK PK WND 14028/1845 SLP125 P0008 T01060100 TSNO VIA AUTODIAL

TAF

Not found

Frequencies

Recorded 135.75 MHz ASOS
Unicom 122.90 MHz CTAF
Warning: Do not use this data for real-world aviation or navigation. No guarantee of current accuracy is given.